createdAt,value
2023-12-02T00:00:47.452Z,5.25
2023-12-02T00:03:14.767Z,5.70
2023-12-02T00:05:42.173Z,5.67
2023-12-02T00:08:09.305Z,5.05
2023-12-02T00:10:36.461Z,5.25
2023-12-02T00:13:03.644Z,5.00
2023-12-02T00:15:30.984Z,5.60
2023-12-02T00:17:58.357Z,6.63
2023-12-02T00:20:25.552Z,6.80
2023-12-02T00:22:52.682Z,4.60
2023-12-02T00:25:19.779Z,5.97
2023-12-02T00:27:47.246Z,6.25
2023-12-02T00:30:14.874Z,4.80
2023-12-02T00:32:42.041Z,3.88
2023-12-02T00:35:09.480Z,6.45
2023-12-02T00:37:36.575Z,5.50
2023-12-02T00:40:04.219Z,5.60
2023-12-02T00:42:31.364Z,4.00
2023-12-02T00:44:58.620Z,5.68
2023-12-02T00:47:25.867Z,5.78
2023-12-02T00:49:53.003Z,4.70
2023-12-02T00:52:20.161Z,4.55
2023-12-02T00:54:47.335Z,5.53
2023-12-02T00:57:14.484Z,4.32
2023-12-02T00:59:41.661Z,4.80
2023-12-02T01:02:08.904Z,5.45
2023-12-02T01:04:36.409Z,3.90
2023-12-02T01:07:03.684Z,4.37
2023-12-02T01:09:30.821Z,4.03
2023-12-02T01:11:58.012Z,3.47
2023-12-02T01:14:28.370Z,3.90
2023-12-02T01:16:55.545Z,4.50
2023-12-02T01:19:22.978Z,3.90
2023-12-02T01:21:50.142Z,5.32
2023-12-02T01:24:18.414Z,7.05
2023-12-02T01:26:45.499Z,5.80
2023-12-02T01:29:12.873Z,3.95
2023-12-02T01:31:40.180Z,4.80
2023-12-02T01:34:07.653Z,4.55
2023-12-02T01:36:34.864Z,4.57
2023-12-02T01:39:02.029Z,5.70
2023-12-02T01:41:33.022Z,4.90
2023-12-02T01:44:00.328Z,3.13
2023-12-02T01:46:27.979Z,4.15
2023-12-02T01:48:55.815Z,3.67
2023-12-02T01:51:23.078Z,3.95
2023-12-02T01:53:50.285Z,2.92
2023-12-02T01:56:36.412Z,4.00
2023-12-02T01:59:08.875Z,4.43
2023-12-02T02:01:36.060Z,5.30
2023-12-02T02:04:03.283Z,4.43
2023-12-02T02:06:30.547Z,4.70
2023-12-02T02:08:57.654Z,3.33
2023-12-02T02:11:25.105Z,3.90
2023-12-02T02:13:52.326Z,4.50
2023-12-02T02:16:19.528Z,4.90
2023-12-02T02:18:46.909Z,4.50
2023-12-02T02:21:23.833Z,4.82
2023-12-02T02:23:51.077Z,5.18
2023-12-02T02:26:18.609Z,4.00
2023-12-02T02:28:45.826Z,6.50
2023-12-02T02:31:13.077Z,3.97
2023-12-02T02:33:40.238Z,4.40
2023-12-02T02:36:08.066Z,4.47
2023-12-02T02:38:35.213Z,4.60
2023-12-02T02:41:05.588Z,4.75
2023-12-02T02:43:32.801Z,3.40
2023-12-02T02:45:59.909Z,5.10
2023-12-02T02:48:27.199Z,4.95
2023-12-02T02:50:54.393Z,4.88
2023-12-02T02:53:21.742Z,4.70
2023-12-02T02:55:48.935Z,4.03
2023-12-02T02:58:16.778Z,4.32
2023-12-02T03:00:43.913Z,3.97
2023-12-02T03:03:13.772Z,4.35
2023-12-02T03:05:40.967Z,5.03
2023-12-02T03:08:08.284Z,4.37
2023-12-02T03:10:35.835Z,4.53
2023-12-02T03:13:03.431Z,5.03
2023-12-02T03:15:30.582Z,5.57
2023-12-02T03:17:57.805Z,4.05
2023-12-02T03:20:24.937Z,4.70
2023-12-02T03:22:52.255Z,5.22
2023-12-02T03:25:19.781Z,4.75
2023-12-02T03:27:46.997Z,4.30
2023-12-02T03:30:14.574Z,7.07
2023-12-02T03:32:42.731Z,5.03
2023-12-02T03:35:10.357Z,5.50
2023-12-02T03:37:38.974Z,4.75
2023-12-02T03:40:07.692Z,4.50
2023-12-02T03:42:35.239Z,4.47
2023-12-02T03:45:02.779Z,3.40
2023-12-02T03:47:29.959Z,4.63
2023-12-02T03:49:57.074Z,3.80
2023-12-02T03:52:24.907Z,4.32
2023-12-02T03:54:52.531Z,5.93
2023-12-02T03:57:19.676Z,4.50
2023-12-02T03:59:46.817Z,5.60
2023-12-02T04:02:14.045Z,4.18
2023-12-02T04:04:41.169Z,4.75
2023-12-02T04:07:11.436Z,4.57
2023-12-02T04:09:38.659Z,4.30
2023-12-02T04:12:06.326Z,4.30
2023-12-02T04:14:33.514Z,4.70
2023-12-02T04:17:03.055Z,4.38
2023-12-02T04:19:30.233Z,4.90
2023-12-02T04:21:58.167Z,3.67
2023-12-02T04:24:25.524Z,4.10
2023-12-02T04:26:52.839Z,5.18
2023-12-02T04:29:19.970Z,4.07
2023-12-02T04:31:47.131Z,5.32
2023-12-02T04:34:15.673Z,4.47
2023-12-02T04:36:44.500Z,5.22
2023-12-02T04:39:12.975Z,4.95
2023-12-02T04:41:40.289Z,5.95
2023-12-02T04:44:08.038Z,3.70
2023-12-02T04:46:35.194Z,4.30
2023-12-02T04:49:02.300Z,5.15
2023-12-02T04:51:29.737Z,4.82
2023-12-02T04:53:56.962Z,5.75
2023-12-02T04:56:24.472Z,5.45
2023-12-02T04:58:52.165Z,4.40
2023-12-02T05:01:19.273Z,3.67
2023-12-02T05:03:46.502Z,5.15
2023-12-02T05:06:18.395Z,4.95
2023-12-02T05:08:45.864Z,4.93
2023-12-02T05:11:22.732Z,4.10
2023-12-02T05:13:51.921Z,5.13
2023-12-02T05:16:19.961Z,4.75
2023-12-02T05:18:47.658Z,5.68
2023-12-02T05:21:16.838Z,6.95
2023-12-02T05:23:43.975Z,4.20
2023-12-02T05:26:11.253Z,3.95
2023-12-02T05:28:39.929Z,4.93
2023-12-02T05:31:07.718Z,4.68
2023-12-02T05:33:34.880Z,5.45
2023-12-02T05:36:02.108Z,4.30
2023-12-02T05:38:29.540Z,4.85
2023-12-02T05:40:56.704Z,4.68
2023-12-02T05:43:24.609Z,4.95
2023-12-02T05:45:52.822Z,5.15
2023-12-02T05:48:21.880Z,4.23
2023-12-02T05:50:49.222Z,5.15
2023-12-02T05:53:16.638Z,4.18
2023-12-02T05:55:43.718Z,3.58
2023-12-02T05:58:10.848Z,4.13
2023-12-02T06:00:37.976Z,5.27
2023-12-02T06:03:05.342Z,4.53
2023-12-02T06:05:32.617Z,4.80
2023-12-02T06:07:59.922Z,5.40
2023-12-02T06:10:27.080Z,4.68
2023-12-02T06:12:54.242Z,6.40
2023-12-02T06:15:21.341Z,4.47
2023-12-02T06:17:49.127Z,4.82
2023-12-02T06:20:16.424Z,4.68
2023-12-02T06:22:43.592Z,4.30
2023-12-02T06:25:13.668Z,5.33
2023-12-02T06:27:40.868Z,4.88
2023-12-02T06:30:11.533Z,4.65
2023-12-02T06:32:40.173Z,6.22
2023-12-02T06:35:08.946Z,5.07
2023-12-02T06:37:36.387Z,4.43
2023-12-02T06:40:07.437Z,4.10
2023-12-02T06:42:35.815Z,4.55
2023-12-02T06:45:03.072Z,6.35
2023-12-02T06:47:30.322Z,4.47
2023-12-02T06:49:57.616Z,4.70
2023-12-02T06:52:24.748Z,5.13
2023-12-02T06:57:22.039Z,4.55
2023-12-02T06:59:49.320Z,4.95
2023-12-02T07:02:16.525Z,3.23
2023-12-02T07:04:44.025Z,5.35
2023-12-02T07:07:11.488Z,4.93
2023-12-02T07:09:38.758Z,3.38
2023-12-02T07:12:06.978Z,4.88
2023-12-02T07:14:34.130Z,5.23
2023-12-02T07:17:01.358Z,5.20
2023-12-02T07:19:28.647Z,5.80
2023-12-02T07:21:55.855Z,5.03
2023-12-02T07:24:23.242Z,6.22
2023-12-02T07:26:50.369Z,6.70
2023-12-02T07:29:17.480Z,4.75
2023-12-02T07:31:46.851Z,4.40
2023-12-02T07:34:13.989Z,4.80
2023-12-02T07:36:41.363Z,4.63
2023-12-02T07:39:08.628Z,5.03
2023-12-02T07:41:35.784Z,4.00
2023-12-02T07:44:03.196Z,5.15
2023-12-02T07:46:31.080Z,4.18
2023-12-02T07:48:58.316Z,4.85
2023-12-02T07:51:25.478Z,5.23
2023-12-02T07:53:53.289Z,5.28
2023-12-02T07:56:20.599Z,6.10
2023-12-02T07:58:47.732Z,4.57
2023-12-02T08:01:15.013Z,6.15
2023-12-02T08:03:42.175Z,4.07
2023-12-02T08:06:10.467Z,6.05
2023-12-02T08:08:37.805Z,4.85
2023-12-02T08:11:06.552Z,5.38
2023-12-02T08:13:33.700Z,6.13
2023-12-02T08:16:00.912Z,6.43
2023-12-02T08:18:28.053Z,4.22
2023-12-02T08:20:55.424Z,7.63
2023-12-02T08:23:22.533Z,6.93
2023-12-02T08:25:49.691Z,5.57
2023-12-02T08:28:16.769Z,5.47
2023-12-02T08:30:44.022Z,7.03
2023-12-02T08:33:11.167Z,6.95
2023-12-02T08:35:38.371Z,6.25
2023-12-02T08:38:05.508Z,4.93
2023-12-02T08:40:32.695Z,6.10
2023-12-02T08:42:59.900Z,7.07
2023-12-02T08:45:27.164Z,5.88
2023-12-02T08:47:57.181Z,6.40
2023-12-02T08:50:24.407Z,6.53
2023-12-02T08:52:51.523Z,8.83
2023-12-02T08:55:18.652Z,7.00
2023-12-02T08:57:45.723Z,5.80
2023-12-02T09:00:13.716Z,7.55
2023-12-02T09:02:40.973Z,6.28
2023-12-02T09:05:09.827Z,5.23
2023-12-02T09:07:37.351Z,5.80
2023-12-02T09:10:05.099Z,5.57
2023-12-02T09:12:32.554Z,6.68
2023-12-02T09:15:09.659Z,8.05
2023-12-02T09:18:01.961Z,5.43
2023-12-02T09:20:47.756Z,4.25
2023-12-02T09:23:18.309Z,6.55
2023-12-02T09:25:46.970Z,6.28
2023-12-02T09:28:21.998Z,5.60
2023-12-02T09:31:07.545Z,5.70
2023-12-02T09:33:38.401Z,5.18
2023-12-02T09:36:07.978Z,6.32
2023-12-02T09:38:35.285Z,5.47
2023-12-02T09:41:22.549Z,7.20
2023-12-02T09:44:26.056Z,5.10
2023-12-02T09:47:03.685Z,6.45
2023-12-02T09:50:10.785Z,6.13
2023-12-02T09:52:56.873Z,6.28
2023-12-02T09:55:30.152Z,5.50
2023-12-02T09:58:27.994Z,5.93
2023-12-02T10:01:23.038Z,6.15
2023-12-02T10:04:38.691Z,6.35
2023-12-02T10:07:19.234Z,5.20
2023-12-02T10:10:11.511Z,4.55
2023-12-02T10:13:32.166Z,7.73
2023-12-02T10:16:04.438Z,7.13
2023-12-02T10:18:38.807Z,6.35
2023-12-02T10:21:11.499Z,6.53
2023-12-02T10:24:02.572Z,7.57
2023-12-02T10:26:40.960Z,5.87
2023-12-02T10:29:34.702Z,5.43
2023-12-02T10:32:25.256Z,6.07
2023-12-02T10:35:07.284Z,5.82
2023-12-02T10:37:40.740Z,6.80
2023-12-02T10:40:11.900Z,8.10
2023-12-02T10:43:00.334Z,6.13
2023-12-02T10:45:31.705Z,6.10
2023-12-02T10:48:03.626Z,7.07
2023-12-02T10:50:31.423Z,5.82
2023-12-02T10:53:05.738Z,5.97
2023-12-02T10:55:37.479Z,7.35
2023-12-02T10:58:06.708Z,8.10
2023-12-02T11:00:39.946Z,8.40
2023-12-02T11:03:33.955Z,7.28
2023-12-02T11:06:33.528Z,6.13
2023-12-02T11:09:11.716Z,8.15
2023-12-02T11:12:33.012Z,7.03
2023-12-02T11:15:13.232Z,5.40
2023-12-02T11:17:59.136Z,6.65
2023-12-02T11:20:50.943Z,6.70
2023-12-02T11:24:10.914Z,5.93
2023-12-02T11:26:48.464Z,7.20
2023-12-02T11:29:28.676Z,8.13
2023-12-02T11:32:19.989Z,6.38
2023-12-02T11:35:18.266Z,6.30
2023-12-02T11:37:59.255Z,7.53
2023-12-02T11:40:45.831Z,7.90
2023-12-02T11:43:33.881Z,6.53
2023-12-02T11:46:11.828Z,6.28
2023-12-02T11:49:09.523Z,7.57
2023-12-02T11:51:53.306Z,7.22
2023-12-02T11:54:53.832Z,7.25
2023-12-02T11:58:16.847Z,6.53
2023-12-02T12:01:10.952Z,6.22
2023-12-02T12:04:19.447Z,6.53
2023-12-02T12:07:08.983Z,6.32
2023-12-02T12:09:47.719Z,6.97
2023-12-02T12:12:19.548Z,6.32
2023-12-02T12:14:48.405Z,6.93
2023-12-02T12:17:15.570Z,6.53
2023-12-02T12:19:42.866Z,7.82
2023-12-02T12:22:10.819Z,7.18
2023-12-02T12:24:38.078Z,7.30
2023-12-02T12:27:06.007Z,6.30
2023-12-02T12:29:33.326Z,7.03
2023-12-02T12:32:00.652Z,7.25
2023-12-02T12:34:28.709Z,6.80
2023-12-02T12:36:56.748Z,8.35
2023-12-02T12:39:24.139Z,7.47
2023-12-02T12:41:53.395Z,6.03
2023-12-02T12:44:20.886Z,7.40
2023-12-02T12:46:48.377Z,7.53
2023-12-02T12:49:23.421Z,7.03
2023-12-02T12:51:58.367Z,8.18
2023-12-02T12:57:05.816Z,8.75
2023-12-02T12:59:39.074Z,8.93
2023-12-02T13:02:32.806Z,8.88
2023-12-02T13:05:12.188Z,8.60
2023-12-02T13:07:50.564Z,6.40
2023-12-02T13:10:19.351Z,7.63
2023-12-02T13:12:49.580Z,7.38
2023-12-02T13:15:21.507Z,7.30
2023-12-02T13:17:50.362Z,6.72
2023-12-02T13:20:18.491Z,8.40
2023-12-02T13:22:48.880Z,7.07
2023-12-02T13:25:27.139Z,6.63
2023-12-02T13:27:58.796Z,6.57
2023-12-02T13:30:26.538Z,8.82
2023-12-02T13:33:13.481Z,7.73
2023-12-02T13:35:45.073Z,8.05
2023-12-02T13:38:27.502Z,8.30
2023-12-02T13:41:06.731Z,8.10
2023-12-02T13:43:52.763Z,8.70
2023-12-02T13:46:34.753Z,8.30
2023-12-02T13:49:25.955Z,9.18
2023-12-02T13:52:26.549Z,7.20
2023-12-02T13:55:23.260Z,8.88
2023-12-02T13:58:07.496Z,7.70
2023-12-02T14:01:05.908Z,7.33
2023-12-02T14:04:02.040Z,8.73
2023-12-02T14:07:08.866Z,9.00
2023-12-02T14:09:40.837Z,6.82
2023-12-02T14:12:25.499Z,7.53
2023-12-02T14:15:28.242Z,8.47
2023-12-02T14:18:29.456Z,7.00
2023-12-02T14:21:39.892Z,6.57
2023-12-02T14:24:16.391Z,6.38
2023-12-02T14:27:22.295Z,7.13
2023-12-02T14:30:07.449Z,5.43
2023-12-02T14:32:55.809Z,6.32
2023-12-02T14:35:53.640Z,7.88
2023-12-02T14:38:33.029Z,7.57
2023-12-02T14:41:22.002Z,7.60
2023-12-02T14:44:29.206Z,6.30
2023-12-02T14:47:05.881Z,7.53
2023-12-02T14:49:43.286Z,8.65
2023-12-02T14:52:11.348Z,8.88
2023-12-02T14:54:46.454Z,8.07
2023-12-02T14:57:18.118Z,7.27
2023-12-02T14:59:55.678Z,7.63
2023-12-02T15:02:50.634Z,6.18
2023-12-02T15:05:18.233Z,7.63
2023-12-02T15:07:51.269Z,8.35
2023-12-02T15:10:29.394Z,8.27
2023-12-02T15:13:06.621Z,7.85
2023-12-02T15:15:45.328Z,7.00
2023-12-02T15:18:21.987Z,6.95
2023-12-02T15:21:05.466Z,8.93
2023-12-02T15:23:32.718Z,6.83
2023-12-02T15:26:02.043Z,8.18
2023-12-02T15:28:32.372Z,7.85
2023-12-02T15:31:15.136Z,7.38
2023-12-02T15:33:56.957Z,7.93
2023-12-02T15:36:29.548Z,8.93
2023-12-02T15:38:58.086Z,7.25
2023-12-02T15:41:25.535Z,9.20
2023-12-02T15:44:01.707Z,9.55
2023-12-02T15:46:29.620Z,10.05
2023-12-02T15:48:57.359Z,9.00
2023-12-02T15:51:26.414Z,8.25
2023-12-02T15:53:53.847Z,10.63
2023-12-02T15:56:22.392Z,10.02
2023-12-02T15:58:51.684Z,10.77
2023-12-02T16:01:19.894Z,9.90
2023-12-02T16:03:49.744Z,8.50
2023-12-02T16:06:22.083Z,8.73
2023-12-02T16:08:49.650Z,10.48
2023-12-02T16:11:18.420Z,7.60
2023-12-02T16:13:46.153Z,8.53
2023-12-02T16:16:17.522Z,7.22
2023-12-02T16:18:46.201Z,8.48
2023-12-02T16:21:20.128Z,8.10
2023-12-02T16:23:49.328Z,8.48
2023-12-02T16:26:18.494Z,10.00
2023-12-02T16:28:47.278Z,10.25
2023-12-02T16:31:14.657Z,9.73
2023-12-02T16:33:46.816Z,9.75
2023-12-02T16:36:15.667Z,8.13
2023-12-02T16:38:43.029Z,7.87
2023-12-02T16:41:10.337Z,9.40
2023-12-02T16:43:38.088Z,9.57
2023-12-02T16:46:08.123Z,8.95
2023-12-02T16:48:36.170Z,8.63
2023-12-02T16:51:07.209Z,6.83
2023-12-02T16:53:35.884Z,10.00
2023-12-02T16:56:14.107Z,9.32
2023-12-02T16:58:47.466Z,7.63
2023-12-02T17:01:30.877Z,9.68
2023-12-02T17:03:58.846Z,8.97
2023-12-02T17:06:26.108Z,9.65
2023-12-02T17:08:54.713Z,9.93
2023-12-02T17:11:24.081Z,10.35
2023-12-02T17:13:58.547Z,10.27
2023-12-02T17:16:32.716Z,8.40
2023-12-02T17:19:01.370Z,9.35
2023-12-02T17:21:34.391Z,10.70
2023-12-02T17:24:02.252Z,9.52
2023-12-02T17:26:33.133Z,7.82
2023-12-02T17:29:00.626Z,9.13
2023-12-02T17:31:27.836Z,8.55
2023-12-02T17:33:55.294Z,8.60
2023-12-02T17:36:22.650Z,9.85
2023-12-02T17:38:49.783Z,8.52
2023-12-02T17:41:16.878Z,10.00
2023-12-02T17:43:44.327Z,11.90
2023-12-02T17:46:11.519Z,12.23
2023-12-02T17:48:38.890Z,12.93
2023-12-02T17:51:07.344Z,10.80
2023-12-02T17:53:34.543Z,12.77
2023-12-02T17:56:01.852Z,10.48
2023-12-02T17:58:29.198Z,12.57
2023-12-02T18:00:56.520Z,12.57
2023-12-02T18:03:23.869Z,13.10
2023-12-02T18:05:50.973Z,11.30
2023-12-02T18:08:18.058Z,11.18
2023-12-02T18:10:45.212Z,12.63
2023-12-02T18:13:12.408Z,10.18
2023-12-02T18:15:39.838Z,11.00
2023-12-02T18:18:07.129Z,10.90
2023-12-02T18:20:34.426Z,13.27
2023-12-02T18:23:01.613Z,13.43
2023-12-02T18:25:28.703Z,11.95
2023-12-02T18:27:56.050Z,10.70
2023-12-02T18:30:23.393Z,12.03
2023-12-02T18:32:50.943Z,11.65
2023-12-02T18:35:18.329Z,13.07
2023-12-02T18:37:45.933Z,11.60
2023-12-02T18:40:13.430Z,13.00
2023-12-02T18:42:41.135Z,12.63
2023-12-02T18:45:09.525Z,11.73
2023-12-02T18:47:36.869Z,10.75
2023-12-02T18:50:04.235Z,11.32
2023-12-02T18:52:31.884Z,12.65
2023-12-02T18:54:58.950Z,11.37
2023-12-02T18:57:27.370Z,11.27
2023-12-02T18:59:56.700Z,11.85
2023-12-02T19:02:23.919Z,11.73
2023-12-02T19:04:51.082Z,10.65
2023-12-02T19:07:18.215Z,13.03
2023-12-02T19:09:45.276Z,11.85
2023-12-02T19:12:14.037Z,12.02
2023-12-02T19:14:41.316Z,10.90
2023-12-02T19:17:08.625Z,13.07
2023-12-02T19:19:36.000Z,12.83
2023-12-02T19:22:04.299Z,13.02
2023-12-02T19:24:31.770Z,12.45
2023-12-02T19:26:59.203Z,11.63
2023-12-02T19:29:26.903Z,12.68
2023-12-02T19:31:54.429Z,11.77
2023-12-02T19:34:21.587Z,12.73
2023-12-02T19:36:49.402Z,11.18
2023-12-02T19:39:16.583Z,11.95
2023-12-02T19:41:46.538Z,11.65
2023-12-02T19:44:14.623Z,12.07
2023-12-02T19:46:44.312Z,10.88
2023-12-02T19:49:11.636Z,12.25
2023-12-02T19:51:38.882Z,12.13
2023-12-02T19:54:06.950Z,11.70
2023-12-02T19:56:34.166Z,11.30
2023-12-02T19:59:01.496Z,11.85
2023-12-02T20:01:28.821Z,11.18
2023-12-02T20:03:55.983Z,10.55
2023-12-02T20:06:23.192Z,11.30
2023-12-02T20:08:50.409Z,10.77
2023-12-02T20:11:17.652Z,12.32
2023-12-02T20:13:44.720Z,11.25
2023-12-02T20:16:12.207Z,9.40
2023-12-02T20:18:39.289Z,10.68
2023-12-02T20:21:06.997Z,9.03
2023-12-02T20:23:34.331Z,11.25
2023-12-02T20:26:02.434Z,10.63
2023-12-02T20:28:29.613Z,10.85
2023-12-02T20:30:56.816Z,11.40
2023-12-02T20:33:24.200Z,9.90
2023-12-02T20:35:51.522Z,12.20
2023-12-02T20:38:19.301Z,11.45
2023-12-02T20:40:46.448Z,11.50
2023-12-02T20:43:14.178Z,10.05
2023-12-02T20:45:42.170Z,11.10
2023-12-02T20:48:09.577Z,12.00
2023-12-02T20:50:36.792Z,11.20
2023-12-02T20:53:03.954Z,11.60
2023-12-02T20:55:31.063Z,10.27
2023-12-02T20:57:58.201Z,11.60
2023-12-02T21:00:25.388Z,11.82
2023-12-02T21:02:52.604Z,11.52
2023-12-02T21:05:20.473Z,9.95
2023-12-02T21:07:47.583Z,11.55
2023-12-02T21:10:14.955Z,11.60
2023-12-02T21:12:43.364Z,11.00
2023-12-02T21:15:11.288Z,10.32
2023-12-02T21:17:38.890Z,9.88
2023-12-02T21:20:07.892Z,9.77
2023-12-02T21:22:35.079Z,9.17
2023-12-02T21:25:02.316Z,10.50
2023-12-02T21:27:29.453Z,11.60
2023-12-02T21:29:56.991Z,11.40
2023-12-02T21:32:28.308Z,9.23
2023-12-02T21:35:08.304Z,9.20
2023-12-02T21:37:35.924Z,10.30
2023-12-02T21:40:10.466Z,11.25
2023-12-02T21:42:38.275Z,10.65
2023-12-02T21:45:40.243Z,9.68
2023-12-02T21:48:08.062Z,9.10
2023-12-02T21:50:41.192Z,9.10
2023-12-02T21:53:10.273Z,9.27
2023-12-02T21:55:37.512Z,8.25
2023-12-02T21:58:04.847Z,9.63
2023-12-02T22:00:32.541Z,9.43
2023-12-02T22:03:05.435Z,9.25
2023-12-02T22:05:34.954Z,10.43
2023-12-02T22:08:06.815Z,9.15
2023-12-02T22:10:36.189Z,8.30
2023-12-02T22:13:03.389Z,8.27
2023-12-02T22:15:39.494Z,8.57
2023-12-02T22:18:13.292Z,8.30
2023-12-02T22:20:40.588Z,8.90
2023-12-02T22:23:12.892Z,10.15
2023-12-02T22:25:44.809Z,8.23
2023-12-02T22:28:16.586Z,9.45
2023-12-02T22:30:50.396Z,9.43
2023-12-02T22:33:22.634Z,9.75
2023-12-02T22:35:58.284Z,9.20
2023-12-02T22:38:44.870Z,8.57
2023-12-02T22:41:17.615Z,9.27
2023-12-02T22:43:49.973Z,8.10
2023-12-02T22:46:21.788Z,9.27
2023-12-02T22:48:52.320Z,8.20
2023-12-02T22:51:26.594Z,9.73
2023-12-02T22:53:55.915Z,9.55
2023-12-02T22:56:24.698Z,9.43
2023-12-02T22:58:53.215Z,8.48
2023-12-02T23:01:34.846Z,8.75
2023-12-02T23:04:40.139Z,8.13
2023-12-02T23:07:16.424Z,8.35
2023-12-02T23:09:53.193Z,8.95
2023-12-02T23:12:38.004Z,7.70
2023-12-02T23:15:41.794Z,7.85
2023-12-02T23:18:14.552Z,7.83
2023-12-02T23:20:48.892Z,8.10
2023-12-02T23:23:18.143Z,6.63
2023-12-02T23:25:45.686Z,9.18
2023-12-02T23:28:12.944Z,6.47
2023-12-02T23:30:40.452Z,6.80
2023-12-02T23:33:14.958Z,7.68
2023-12-02T23:35:42.616Z,7.30
2023-12-02T23:38:10.398Z,8.65
2023-12-02T23:40:47.678Z,7.93
2023-12-02T23:43:36.696Z,7.93
2023-12-02T23:46:04.753Z,7.32
2023-12-02T23:48:32.008Z,7.30
2023-12-02T23:50:59.790Z,8.05
2023-12-02T23:53:27.054Z,8.13
2023-12-02T23:55:54.604Z,6.07
2023-12-02T23:58:21.806Z,6.30
